createdAt,value
2019-04-27T00:04:11.635Z,6.70
2019-04-27T00:09:20.905Z,7.60
2019-04-27T00:14:33.389Z,5.30
2019-04-27T00:19:44.350Z,4.10
2019-04-27T00:24:56.063Z,4.10
2019-04-27T00:30:06.277Z,4.30
2019-04-27T00:35:17.914Z,4.10
2019-04-27T00:40:57.229Z,5.60
2019-04-27T00:46:06.977Z,5.90
2019-04-27T00:51:14.996Z,6.00
2019-04-27T00:56:27.664Z,6.30
2019-04-27T01:01:39.800Z,6.40
2019-04-27T01:06:54.429Z,6.20
2019-04-27T01:12:09.348Z,6.10
2019-04-27T01:17:19.390Z,5.50
2019-04-27T01:22:34.582Z,6.10
2019-04-27T01:27:52.228Z,6.10
2019-04-27T01:33:10.284Z,6.50
2019-04-27T01:38:28.924Z,6.70
2019-04-27T01:43:46.601Z,6.60
2019-04-27T01:49:05.607Z,6.90
2019-04-27T01:54:31.747Z,6.10
2019-04-27T01:59:54.902Z,8.20
2019-04-27T02:05:19.621Z,11.60
2019-04-27T02:10:33.731Z,12.30
2019-04-27T02:15:45.911Z,12.10
2019-04-27T02:21:03.882Z,8.70
2019-04-27T02:26:22.093Z,10.70
2019-04-27T02:31:41.920Z,9.50
2019-04-27T02:37:10.536Z,8.70
2019-04-27T02:42:25.200Z,7.40
2019-04-27T02:47:45.084Z,6.10
2019-04-27T02:53:03.773Z,5.30
2019-04-27T02:58:22.101Z,4.20
2019-04-27T03:04:06.487Z,4.20
2019-04-27T03:09:32.017Z,4.00
2019-04-27T03:14:51.132Z,4.80
2019-04-27T03:20:10.871Z,4.60
2019-04-27T03:25:32.768Z,4.50
2019-04-27T03:30:52.956Z,5.00
2019-04-27T03:36:13.664Z,5.60
2019-04-27T03:41:24.962Z,5.90
2019-04-27T03:46:52.898Z,4.80
2019-04-27T03:52:10.179Z,5.50
2019-04-27T03:57:35.944Z,7.10
2019-04-27T04:02:56.595Z,6.50
2019-04-27T04:08:55.037Z,7.30
2019-04-27T04:14:20.713Z,6.00
2019-04-27T04:20:03.623Z,5.70
2019-04-27T04:25:17.036Z,4.90
2019-04-27T04:30:43.849Z,5.70
2019-04-27T04:36:06.570Z,5.00
2019-04-27T04:41:26.725Z,4.60
2019-04-27T04:46:44.128Z,6.20
2019-04-27T04:52:01.734Z,6.60
2019-04-27T04:57:22.079Z,5.60
2019-04-27T05:02:40.268Z,4.80
2019-04-27T05:07:55.320Z,5.40
2019-04-27T05:13:13.355Z,7.90
2019-04-27T05:18:29.823Z,6.00
2019-04-27T05:23:49.136Z,7.40
2019-04-27T05:29:04.624Z,5.80
2019-04-27T05:34:17.047Z,5.10
2019-04-27T05:39:39.850Z,5.30
2019-04-27T05:44:51.831Z,6.40
2019-04-27T05:50:18.182Z,5.50
2019-04-27T05:55:45.553Z,6.30
2019-04-27T06:01:00.495Z,5.90
2019-04-27T06:06:20.239Z,4.70
2019-04-27T06:11:36.913Z,5.90
2019-04-27T06:17:04.928Z,7.50
2019-04-27T06:22:53.420Z,9.80
2019-04-27T06:28:19.474Z,8.00
2019-04-27T06:33:43.614Z,10.00
2019-04-27T06:40:10.410Z,10.30
2019-04-27T06:45:30.346Z,8.20
2019-04-27T06:51:28.446Z,9.10
2019-04-27T06:57:14.198Z,7.40
2019-04-27T07:03:36.620Z,8.50
2019-04-27T07:09:22.519Z,13.20
2019-04-27T07:15:20.898Z,10.70
2019-04-27T07:20:33.188Z,7.30
2019-04-27T07:30:36.541Z,9.20
2019-04-27T07:36:43.729Z,9.10
2019-04-27T07:43:45.594Z,16.10
2019-04-27T07:51:56.353Z,9.70
2019-04-27T07:58:05.938Z,10.50
2019-04-27T08:03:52.450Z,10.20
2019-04-27T08:09:51.815Z,6.80
2019-04-27T08:16:11.691Z,7.90
2019-04-27T08:21:50.431Z,8.70
2019-04-27T08:27:22.388Z,7.90
2019-04-27T09:01:54.242Z,7.70
2019-04-27T09:07:35.759Z,7.10
2019-04-27T09:13:06.314Z,6.20
2019-04-27T09:19:16.362Z,7.00
2019-04-27T09:25:04.457Z,9.60
2019-04-27T09:30:51.269Z,4.10
2019-04-27T09:43:48.213Z,3.10
2019-04-27T09:50:38.620Z,3.40
2019-04-27T09:58:53.571Z,2.90
2019-04-27T10:04:53.112Z,2.50
2019-04-27T10:14:11.214Z,3.30
2019-04-27T10:26:26.401Z,3.20
2019-04-27T10:31:40.076Z,3.00
2019-04-27T10:37:13.932Z,2.60
2019-04-27T11:36:37.115Z,2.70
2019-04-27T11:42:03.765Z,2.60
2019-04-27T11:47:36.312Z,2.20
2019-04-27T12:09:41.615Z,1.30
2019-04-27T12:14:47.894Z,1.50
2019-04-27T12:20:36.308Z,1.40
2019-04-27T12:27:01.419Z,2.20
2019-04-27T12:33:00.864Z,2.10
2019-04-27T12:39:47.825Z,2.40
2019-04-27T13:18:53.448Z,2.80
2019-04-27T13:24:58.499Z,2.80
2019-04-27T13:30:31.980Z,3.00
2019-04-27T13:52:47.324Z,2.90
2019-04-27T13:57:53.956Z,4.10
2019-04-27T14:02:54.073Z,2.40
2019-04-27T14:08:02.291Z,1.90
2019-04-27T14:13:20.223Z,2.80
2019-04-27T14:18:29.608Z,1.80
2019-04-27T14:23:35.980Z,1.40
2019-04-27T14:28:49.954Z,1.90
2019-04-27T14:34:06.504Z,1.50
2019-04-27T14:39:43.995Z,1.80
2019-04-27T14:44:48.725Z,1.60
2019-04-27T14:50:05.143Z,1.50
2019-04-27T14:55:11.142Z,1.60
2019-04-27T15:00:26.239Z,2.00
2019-04-27T15:06:09.532Z,1.70
2019-04-27T15:24:16.287Z,1.60
2019-04-27T15:30:02.730Z,2.00
2019-04-27T15:35:40.414Z,1.60
2019-04-27T15:40:54.389Z,1.60
2019-04-27T15:47:11.991Z,2.70
2019-04-27T15:52:33.080Z,3.30
2019-04-27T15:57:50.902Z,3.80
2019-04-27T16:03:43.978Z,4.20
2019-04-27T16:10:03.298Z,3.90
2019-04-27T16:15:41.007Z,3.40
2019-04-27T16:21:20.789Z,3.00
2019-04-27T16:26:30.226Z,2.20
2019-04-27T16:32:14.430Z,2.30
2019-04-27T16:38:00.528Z,2.40
2019-04-27T16:43:46.185Z,2.70
2019-04-27T16:49:38.577Z,2.30
2019-04-27T16:54:43.548Z,2.20
2019-04-27T17:00:26.476Z,2.30
2019-04-27T17:05:39.620Z,2.30
2019-04-27T17:11:11.310Z,2.90
2019-04-27T17:16:58.679Z,2.90
2019-04-27T17:22:20.185Z,2.50
2019-04-27T17:31:00.569Z,4.00
2019-04-27T17:36:56.661Z,4.30
2019-04-27T17:47:45.663Z,5.00
2019-04-27T17:56:08.393Z,5.20
2019-04-27T18:01:00.447Z,4.30
2019-04-27T18:08:00.564Z,5.50
2019-04-27T18:16:39.098Z,5.00
2019-04-27T18:30:19.493Z,5.20
2019-04-27T18:36:22.045Z,5.50
2019-04-27T18:41:54.898Z,4.80
2019-04-27T20:03:23.198Z,4.10
2019-04-27T20:08:17.030Z,2.80
2019-04-27T20:13:19.446Z,3.40
2019-04-27T20:19:58.531Z,4.50
2019-04-27T20:26:38.214Z,4.70
2019-04-27T20:34:16.419Z,6.20
2019-04-27T20:40:02.218Z,5.90
2019-04-27T20:47:14.717Z,5.70
2019-04-27T20:54:14.193Z,5.20
2019-04-27T20:59:07.109Z,4.50
2019-04-27T21:04:08.075Z,4.70
2019-04-27T21:17:08.914Z,4.90
2019-04-27T21:26:42.467Z,4.60
2019-04-27T21:31:34.831Z,3.70
2019-04-27T21:44:42.545Z,4.80
2019-04-27T21:54:09.711Z,4.00
2019-04-27T22:06:21.404Z,4.00
2019-04-27T22:38:32.672Z,3.90
2019-04-27T23:11:55.050Z,4.20
